Time;durP1;ratioP1;P1;durP2;ratioP2;P2;SDS_P1;SDS_P2;PMS_P1;PMS_P2;Temp;Humidity;BMP_temperature;BMP_pressure;BME280_temperature;BME280_humidity;BME280_pressure;Samples;Min_cycle;Max_cycle;Signal;HPM_P1;HPM_P2
2022/04/15 00:02:01;;;;;;;12.27;8.10;;;14.70;99.90;;;;;;5072038;28;20218;-44
2022/04/15 00:04:31;;;;;;;19.20;12.10;;;14.70;99.90;;;;;;5070098;28;20210;-41
2022/04/15 00:06:58;;;;;;;28.87;17.03;;;14.70;99.90;;;;;;5071000;28;20618;-43
2022/04/15 00:09:26;;;;;;;29.97;18.93;;;14.70;99.90;;;;;;5071009;28;20306;-42
2022/04/15 00:11:56;;;;;;;23.53;15.50;;;14.70;99.90;;;;;;5072837;28;20231;-41
2022/04/15 00:14:23;;;;;;;22.10;13.10;;;14.70;99.90;;;;;;5070353;28;20679;-42
2022/04/15 00:16:51;;;;;;;17.53;11.27;;;14.70;99.90;;;;;;5072222;28;20262;-45
2022/04/15 00:19:18;;;;;;;15.43;10.30;;;14.70;99.90;;;;;;5069296;28;20208;-44
2022/04/15 00:21:46;;;;;;;13.17;8.57;;;14.70;99.90;;;;;;5072576;28;20702;-44
2022/04/15 00:24:13;;;;;;;19.07;11.93;;;14.70;99.90;;;;;;5072210;28;20232;-49
2022/04/15 00:26:40;;;;;;;13.40;9.07;;;14.70;99.90;;;;;;5072521;28;20199;-44
2022/04/15 00:29:08;;;;;;;11.20;8.57;;;14.70;99.90;;;;;;5071386;28;20224;-41
2022/04/15 00:31:36;;;;;;;21.33;11.60;;;14.70;99.90;;;;;;5072131;28;20203;-45
2022/04/15 00:34:03;;;;;;;14.67;9.00;;;14.70;99.90;;;;;;5068450;28;20215;-46
2022/04/15 00:36:30;;;;;;;16.63;9.97;;;14.70;99.90;;;;;;5072157;28;20622;-45
2022/04/15 00:38:58;;;;;;;11.17;8.00;;;14.70;99.90;;;;;;5067644;28;21029;-50
2022/04/15 00:41:25;;;;;;;9.97;7.30;;;14.70;99.90;;;;;;5069982;28;20682;-51
2022/04/15 00:43:55;;;;;;;10.30;6.67;;;14.70;99.90;;;;;;5072619;28;20280;-43
2022/04/15 00:46:24;;;;;;;9.93;6.33;;;14.80;99.90;;;;;;5072808;28;20807;-47
2022/04/15 00:48:51;;;;;;;13.13;8.10;;;14.80;99.90;;;;;;5068791;28;20189;-44
2022/04/15 00:51:18;;;;;;;14.20;9.40;;;14.70;99.90;;;;;;5072559;28;20654;-49
2022/04/15 00:53:46;;;;;;;31.10;16.53;;;14.70;99.90;;;;;;5072630;28;20625;-50
2022/04/15 00:56:14;;;;;;;35.57;19.00;;;14.70;99.90;;;;;;5072862;28;20261;-51
2022/04/15 00:58:42;;;;;;;30.57;16.50;;;14.60;99.90;;;;;;5066837;28;20675;-48
2022/04/15 01:01:10;;;;;;;23.17;13.63;;;14.60;99.90;;;;;;5065870;28;20201;-51
2022/04/15 01:03:40;;;;;;;20.63;10.80;;;14.50;99.90;;;;;;5068372;28;20204;-51
2022/04/15 01:06:08;;;;;;;17.97;9.80;;;14.50;99.90;;;;;;5070638;28;20250;-51
2022/04/15 01:08:39;;;;;;;15.83;9.00;;;14.40;99.90;;;;;;5072283;28;20298;-49
2022/04/15 01:11:07;;;;;;;17.30;9.40;;;14.30;99.90;;;;;;5072562;28;20192;-50
2022/04/15 01:13:36;;;;;;;15.40;8.33;;;14.30;99.90;;;;;;5070325;28;20709;-49
2022/04/15 01:16:03;;;;;;;17.43;9.33;;;14.30;99.90;;;;;;5065102;28;20220;-49
2022/04/15 01:18:31;;;;;;;18.40;11.03;;;14.30;99.90;;;;;;5070043;28;20191;-47
2022/04/15 01:21:00;;;;;;;23.27;13.33;;;14.30;99.90;;;;;;5071848;28;20639;-48
2022/04/15 01:23:29;;;;;;;21.87;10.93;;;14.30;99.90;;;;;;5072233;28;20196;-50
2022/04/15 01:25:56;;;;;;;14.83;9.00;;;14.40;99.90;;;;;;5072168;28;20218;-48
2022/04/15 01:28:23;;;;;;;18.43;10.77;;;14.40;99.90;;;;;;5065718;28;20294;-46
2022/04/15 01:30:50;;;;;;;23.97;12.90;;;14.40;99.90;;;;;;5071878;28;20783;-48
2022/04/15 01:33:18;;;;;;;26.83;14.73;;;14.40;99.90;;;;;;5063868;28;20227;-49
2022/04/15 01:35:45;;;;;;;22.77;13.90;;;14.50;99.90;;;;;;5060764;28;20212;-47
2022/04/15 01:38:14;;;;;;;19.63;11.47;;;14.40;99.90;;;;;;5068556;28;20250;-50
2022/04/15 01:40:44;;;;;;;16.53;9.57;;;14.40;99.90;;;;;;5064760;28;20597;-50
2022/04/15 01:43:12;;;;;;;15.77;9.77;;;14.40;99.90;;;;;;5072295;28;20292;-45
2022/04/15 01:45:39;;;;;;;13.93;8.93;;;14.40;99.90;;;;;;5069579;28;20293;-47
2022/04/15 01:48:07;;;;;;;10.93;7.53;;;14.40;99.90;;;;;;5068260;28;20215;-50
2022/04/15 01:50:35;;;;;;;10.33;7.03;;;14.40;99.90;;;;;;5071628;28;20568;-52
2022/04/15 01:53:02;;;;;;;10.10;6.90;;;14.40;99.90;;;;;;5071844;28;20769;-44
2022/04/15 01:55:30;;;;;;;10.73;7.47;;;14.30;99.90;;;;;;5070458;28;20256;-44
2022/04/15 01:57:58;;;;;;;7.90;6.20;;;14.30;99.90;;;;;;5070210;28;20234;-46
2022/04/15 02:00:26;;;;;;;9.13;6.80;;;14.30;99.90;;;;;;5072094;28;20202;-46
2022/04/15 02:02:55;;;;;;;11.40;7.77;;;14.30;99.90;;;;;;5069849;28;20598;-47
2022/04/15 02:05:22;;;;;;;11.07;7.37;;;14.30;99.90;;;;;;5070791;28;20725;-46
2022/04/15 02:07:49;;;;;;;8.70;6.60;;;14.30;99.90;;;;;;5068458;28;20215;-47
2022/04/15 02:10:16;;;;;;;8.73;6.47;;;14.30;99.90;;;;;;5071877;28;20203;-48
2022/04/15 02:12:43;;;;;;;9.10;6.80;;;14.30;99.90;;;;;;5071215;28;20294;-41
2022/04/15 02:15:12;;;;;;;10.50;6.77;;;14.30;99.90;;;;;;5067605;28;20553;-45
2022/04/15 02:17:39;;;;;;;10.93;6.20;;;14.20;99.90;;;;;;5065410;28;20602;-47
2022/04/15 02:20:07;;;;;;;10.60;6.73;;;14.20;99.90;;;;;;5070085;28;20218;-47
2022/04/15 02:22:34;;;;;;;10.97;7.00;;;14.10;99.90;;;;;;5071022;28;20199;-48
2022/04/15 02:25:01;;;;;;;11.53;7.03;;;14.10;99.90;;;;;;5064864;28;20218;-50
2022/04/15 02:27:29;;;;;;;10.73;7.20;;;14.10;99.90;;;;;;5063653;28;20199;-40
2022/04/15 02:29:56;;;;;;;12.43;7.53;;;14.00;99.90;;;;;;5069264;28;20203;-46
2022/04/15 02:32:25;;;;;;;10.13;7.03;;;14.00;99.90;;;;;;5070549;28;20270;-48
2022/04/15 02:34:52;;;;;;;11.70;7.97;;;14.00;99.90;;;;;;5067623;28;20200;-44
2022/04/15 02:37:20;;;;;;;13.30;8.53;;;13.90;99.90;;;;;;5070898;28;20203;-43
2022/04/15 02:39:48;;;;;;;13.40;8.63;;;13.90;99.90;;;;;;5061530;28;20227;-43
2022/04/15 02:42:15;;;;;;;14.67;8.47;;;13.80;99.90;;;;;;5070302;28;20215;-46
2022/04/15 02:44:43;;;;;;;10.70;7.10;;;13.80;99.90;;;;;;5070861;28;20658;-49
2022/04/15 02:47:10;;;;;;;17.00;9.60;;;13.80;99.90;;;;;;5070226;28;20203;-50
2022/04/15 02:49:39;;;;;;;22.97;11.93;;;13.80;99.90;;;;;;5065729;28;20257;-50
2022/04/15 02:52:07;;;;;;;15.57;9.53;;;13.80;99.90;;;;;;5069062;28;20257;-41
2022/04/15 02:54:34;;;;;;;16.50;9.10;;;13.90;99.90;;;;;;5070533;28;20214;-46
2022/04/15 02:57:01;;;;;;;14.60;8.33;;;13.90;99.90;;;;;;5070576;28;20206;-43
2022/04/15 02:59:28;;;;;;;17.60;10.07;;;13.90;99.90;;;;;;5067806;28;20683;-46
2022/04/15 03:01:55;;;;;;;17.60;9.33;;;13.90;99.90;;;;;;5067242;28;20657;-46
2022/04/15 03:04:23;;;;;;;10.60;6.53;;;13.90;99.90;;;;;;5068255;28;20195;-46
2022/04/15 03:06:52;;;;;;;12.47;7.03;;;13.90;99.90;;;;;;5067507;28;20284;-45
2022/04/15 03:09:19;;;;;;;14.57;7.77;;;13.90;99.90;;;;;;5069817;28;20194;-45
2022/04/15 03:11:46;;;;;;;15.47;8.70;;;13.90;99.90;;;;;;5070545;28;20208;-44
2022/04/15 03:14:17;;;;;;;16.57;8.73;;;13.90;99.90;;;;;;5067491;28;20606;-42
2022/04/15 03:16:44;;;;;;;13.97;7.53;;;13.90;99.90;;;;;;5061456;28;20239;-41
2022/04/15 03:19:11;;;;;;;15.57;8.60;;;13.90;99.90;;;;;;5058406;28;20232;-44
2022/04/15 03:21:38;;;;;;;17.43;8.63;;;13.80;99.90;;;;;;5069863;28;20199;-44
2022/04/15 03:24:08;;;;;;;12.40;6.87;;;13.90;99.90;;;;;;5068602;28;20195;-47
2022/04/15 03:26:35;;;;;;;12.90;6.57;;;13.80;99.90;;;;;;5066460;28;20194;-41
2022/04/15 03:29:02;;;;;;;12.97;6.67;;;13.90;99.90;;;;;;5060098;28;20638;-43
2022/04/15 03:31:29;;;;;;;19.73;9.77;;;13.80;99.90;;;;;;5064275;28;20227;-43
2022/04/15 03:33:56;;;;;;;14.63;7.80;;;13.80;99.90;;;;;;5056383;28;21025;-42
2022/04/15 03:36:23;;;;;;;11.07;6.93;;;13.80;99.90;;;;;;5069906;28;20558;-43
2022/04/15 03:38:50;;;;;;;9.00;5.77;;;13.90;99.90;;;;;;5065202;28;20195;-43
2022/04/15 03:41:20;;;;;;;8.73;5.93;;;13.90;99.90;;;;;;5059995;28;20222;-40
2022/04/15 03:43:47;;;;;;;8.60;5.77;;;13.90;99.90;;;;;;5066922;28;20707;-39
2022/04/15 03:46:14;;;;;;;9.03;5.13;;;13.90;99.90;;;;;;5067790;28;20593;-40
2022/04/15 03:48:41;;;;;;;13.30;7.00;;;13.80;99.90;;;;;;5067638;28;20231;-50
2022/04/15 03:51:08;;;;;;;16.47;8.57;;;13.80;99.90;;;;;;5068537;28;20207;-51
2022/04/15 03:53:36;;;;;;;19.30;10.07;;;13.80;99.90;;;;;;5068142;28;20215;-50
2022/04/15 03:56:03;;;;;;;26.03;11.83;;;13.80;99.90;;;;;;5068235;28;20566;-50
2022/04/15 03:58:31;;;;;;;25.13;11.73;;;13.80;99.90;;;;;;5069482;28;20194;-49
2022/04/15 04:00:59;;;;;;;17.93;8.83;;;13.80;99.90;;;;;;5069375;28;20283;-48
2022/04/15 04:03:26;;;;;;;12.53;7.67;;;13.80;99.90;;;;;;5068138;28;20808;-51
2022/04/15 04:05:53;;;;;;;13.77;7.80;;;13.80;99.90;;;;;;5069616;28;20195;-44
2022/04/15 04:08:20;;;;;;;11.40;6.67;;;13.80;99.90;;;;;;5066094;28;20229;-48
2022/04/15 04:10:47;;;;;;;11.00;6.37;;;13.80;99.90;;;;;;5066125;28;20207;-51
2022/04/15 04:13:14;;;;;;;8.30;5.17;;;13.80;99.90;;;;;;5066839;28;20552;-50
2022/04/15 04:15:43;;;;;;;8.77;5.63;;;13.80;99.90;;;;;;5069626;28;20278;-48
2022/04/15 04:18:11;;;;;;;13.37;7.23;;;13.70;99.90;;;;;;5067288;28;20226;-50
2022/04/15 04:20:38;;;;;;;9.47;5.73;;;13.80;99.90;;;;;;5069384;28;20209;-50
2022/04/15 04:23:05;;;;;;;9.10;5.47;;;13.80;99.90;;;;;;5068084;28;20207;-49
2022/04/15 04:25:32;;;;;;;10.10;5.60;;;13.80;99.90;;;;;;5064385;28;20208;-50
2022/04/15 04:27:59;;;;;;;7.97;4.97;;;13.70;99.90;;;;;;5064570;28;20192;-48
2022/04/15 04:30:28;;;;;;;9.03;5.57;;;13.70;99.90;;;;;;5062166;28;20570;-50
2022/04/15 04:32:59;;;;;;;11.40;5.40;;;13.70;99.90;;;;;;5057537;28;20194;-49
2022/04/15 04:35:27;;;;;;;11.83;7.30;;;13.60;99.90;;;;;;5063893;28;20193;-51
2022/04/15 04:37:54;;;;;;;18.13;8.60;;;13.60;99.90;;;;;;5061529;28;20203;-42
2022/04/15 04:40:21;;;;;;;9.97;6.37;;;13.50;99.90;;;;;;5064350;28;20617;-41
2022/04/15 04:42:51;;;;;;;12.53;7.47;;;13.60;99.90;;;;;;5072957;28;20501;-39
2022/04/15 04:45:19;;;;;;;11.57;6.73;;;13.60;99.90;;;;;;5073201;28;20620;-42
2022/04/15 04:47:47;;;;;;;12.23;7.27;;;13.60;99.90;;;;;;5070493;28;20191;-43
2022/04/15 04:50:16;;;;;;;22.17;10.50;;;13.70;99.90;;;;;;5072171;28;20196;-41
2022/04/15 04:52:46;;;;;;;23.87;12.17;;;13.60;99.90;;;;;;5072955;28;20196;-41
2022/04/15 04:55:14;;;;;;;27.53;13.37;;;13.60;99.90;;;;;;5071507;28;20748;-42
2022/04/15 04:57:42;;;;;;;22.37;11.83;;;13.70;99.90;;;;;;5071487;28;20228;-40
2022/04/15 05:00:11;;;;;;;20.87;9.70;;;13.70;99.90;;;;;;5070998;28;20205;-41
2022/04/15 05:02:39;;;;;;;21.50;10.73;;;13.70;99.90;;;;;;5070187;28;20601;-40
2022/04/15 05:05:07;;;;;;;19.03;10.23;;;13.80;99.90;;;;;;5069006;28;20193;-40
2022/04/15 05:07:36;;;;;;;14.30;8.03;;;13.80;99.90;;;;;;5070474;28;20199;-40
2022/04/15 05:10:04;;;;;;;15.87;9.03;;;13.90;99.90;;;;;;5065391;28;20678;-41
2022/04/15 05:12:31;;;;;;;14.23;8.53;;;13.90;99.90;;;;;;5072669;28;20298;-44
2022/04/15 05:14:58;;;;;;;15.97;9.00;;;13.90;99.90;;;;;;5059388;28;20609;-40
2022/04/15 05:17:25;;;;;;;17.37;9.67;;;14.00;99.90;;;;;;5067752;28;20263;-41
2022/04/15 05:19:53;;;;;;;23.20;11.77;;;14.00;99.90;;;;;;5060878;28;20306;-41
2022/04/15 05:22:22;;;;;;;26.97;13.30;;;14.10;99.90;;;;;;5067932;28;20265;-41
2022/04/15 05:24:52;;;;;;;22.60;11.83;;;14.10;99.90;;;;;;5067286;28;20209;-40
2022/04/15 05:27:20;;;;;;;25.87;13.17;;;14.10;99.90;;;;;;5070983;28;20199;-41
2022/04/15 05:29:47;;;;;;;23.37;11.97;;;14.10;99.90;;;;;;5063303;28;20617;-40
2022/04/15 05:32:14;;;;;;;17.10;9.73;;;14.10;99.90;;;;;;5066133;28;20206;-42
2022/04/15 05:34:44;;;;;;;16.90;9.43;;;14.00;99.90;;;;;;5063963;28;20207;-41
2022/04/15 05:37:11;;;;;;;14.17;8.43;;;14.00;99.90;;;;;;5061884;28;20229;-42
2022/04/15 05:39:38;;;;;;;15.03;8.30;;;13.90;99.90;;;;;;5070388;28;20214;-40
2022/04/15 05:42:08;;;;;;;12.40;7.13;;;13.90;99.90;;;;;;5071427;28;20202;-40
2022/04/15 05:44:35;;;;;;;14.00;7.60;;;13.80;99.90;;;;;;5071759;28;20191;-40
2022/04/15 05:47:02;;;;;;;14.57;7.63;;;13.80;99.90;;;;;;5070837;28;20206;-41
2022/04/15 05:49:29;;;;;;;13.83;7.70;;;13.80;99.90;;;;;;5068374;28;20201;-41
2022/04/15 05:51:57;;;;;;;11.87;7.23;;;13.70;99.90;;;;;;5069660;28;20197;-42
2022/04/15 05:54:24;;;;;;;13.07;7.60;;;13.70;99.90;;;;;;5068368;28;20702;-44
2022/04/15 05:56:51;;;;;;;12.63;7.40;;;13.60;99.90;;;;;;5069193;28;20249;-40
2022/04/15 05:59:20;;;;;;;18.87;8.53;;;13.60;99.90;;;;;;5067382;28;20237;-40
2022/04/15 06:01:48;;;;;;;19.40;8.43;;;13.50;99.90;;;;;;5068083;28;20201;-43
2022/04/15 06:04:15;;;;;;;35.53;15.63;;;13.50;99.90;;;;;;5066387;28;20196;-42
2022/04/15 06:06:42;;;;;;;26.03;12.13;;;13.40;99.90;;;;;;5062509;28;20729;-42
2022/04/15 06:09:09;;;;;;;22.67;11.07;;;13.40;99.90;;;;;;5065751;28;20211;-42
2022/04/15 06:11:37;;;;;;;29.73;12.20;;;13.30;99.90;;;;;;5061596;28;20194;-39
2022/04/15 06:14:06;;;;;;;42.90;15.60;;;13.30;99.90;;;;;;5071252;28;20209;-42
2022/04/15 06:16:37;;;;;;;37.90;14.97;;;13.20;99.90;;;;;;5060460;28;20226;-40
2022/04/15 06:19:04;;;;;;;28.07;11.83;;;13.20;99.90;;;;;;5068589;28;20225;-41
2022/04/15 06:21:32;;;;;;;38.90;16.07;;;13.10;99.90;;;;;;5066183;28;20221;-41
2022/04/15 06:23:59;;;;;;;29.03;12.63;;;13.10;99.90;;;;;;5065415;28;20236;-46
2022/04/15 06:26:27;;;;;;;31.80;13.27;;;13.00;99.90;;;;;;5063496;28;20229;-41
2022/04/15 06:28:54;;;;;;;28.43;12.83;;;12.90;99.90;;;;;;5064596;28;20212;-43
2022/04/15 06:31:21;;;;;;;29.73;12.40;;;12.90;99.90;;;;;;5063980;28;20205;-46
2022/04/15 06:33:52;;;;;;;23.73;10.43;;;12.80;99.90;;;;;;5059944;28;20218;-41
2022/04/15 06:36:19;;;;;;;27.03;11.57;;;12.70;99.90;;;;;;5057974;28;20696;-41
2022/04/15 06:38:46;;;;;;;24.80;10.87;;;12.60;99.90;;;;;;5059952;28;20268;-45
2022/04/15 06:41:13;;;;;;;19.23;9.60;;;12.60;99.90;;;;;;5064427;28;20198;-42
2022/04/15 06:43:41;;;;;;;18.50;9.03;;;12.50;99.90;;;;;;5070380;28;20197;-39
2022/04/15 06:46:08;;;;;;;13.87;7.63;;;12.40;99.90;;;;;;5070411;28;20262;-40
2022/04/15 06:48:35;;;;;;;16.43;9.17;;;12.30;99.90;;;;;;5066422;28;20202;-46
2022/04/15 06:51:03;;;;;;;17.30;8.90;;;12.20;99.90;;;;;;5069093;28;20209;-39
2022/04/15 06:53:31;;;;;;;19.40;9.77;;;12.20;99.90;;;;;;5067273;28;20277;-39
2022/04/15 06:55:58;;;;;;;18.07;9.10;;;12.10;99.90;;;;;;5068568;28;20232;-40
2022/04/15 06:58:25;;;;;;;15.13;8.77;;;12.00;99.90;;;;;;5067817;28;20203;-39
2022/04/15 07:00:53;;;;;;;16.53;9.23;;;11.90;99.90;;;;;;5069905;28;20204;-39
2022/04/15 07:03:20;;;;;;;16.90;9.27;;;11.90;99.90;;;;;;5063284;28;20243;-39
2022/04/15 07:05:47;;;;;;;21.43;9.70;;;11.80;99.90;;;;;;5070331;28;20329;-39
2022/04/15 07:08:16;;;;;;;18.80;9.13;;;11.70;99.90;;;;;;5067015;28;20210;-39
2022/04/15 07:10:43;;;;;;;24.43;11.20;;;11.70;99.90;;;;;;5070390;28;20191;-40
2022/04/15 07:13:12;;;;;;;17.87;9.63;;;11.60;99.90;;;;;;5069883;28;20195;-40
2022/04/15 07:15:39;;;;;;;22.37;11.13;;;11.50;99.90;;;;;;5066606;28;20217;-39
2022/04/15 07:18:06;;;;;;;24.80;11.97;;;11.50;99.90;;;;;;5060248;28;20241;-39
2022/04/15 07:20:34;;;;;;;23.33;11.57;;;11.50;99.90;;;;;;5069968;28;20684;-39
2022/04/15 07:23:01;;;;;;;22.50;11.50;;;11.50;99.90;;;;;;5060305;28;20731;-44
2022/04/15 07:25:30;;;;;;;18.37;10.80;;;11.50;99.90;;;;;;5069230;28;20674;-39
2022/04/15 07:27:57;;;;;;;17.10;9.57;;;11.50;99.90;;;;;;5064139;28;20209;-39
2022/04/15 07:30:25;;;;;;;14.97;9.07;;;11.50;99.90;;;;;;5064457;28;20199;-42
2022/04/15 07:32:53;;;;;;;11.07;7.30;;;11.50;99.90;;;;;;5056170;28;20679;-40
2022/04/15 07:35:20;;;;;;;11.97;7.50;;;11.50;99.90;;;;;;5069123;28;20257;-40
2022/04/15 07:37:48;;;;;;;14.37;7.57;;;11.50;99.90;;;;;;5060483;28;20217;-40
2022/04/15 07:40:15;;;;;;;12.13;7.47;;;11.50;99.90;;;;;;5063258;28;20193;-45
2022/04/15 07:42:43;;;;;;;13.13;6.60;;;11.50;99.90;;;;;;5068458;28;20203;-43
2022/04/15 07:45:11;;;;;;;8.33;5.57;;;11.50;99.90;;;;;;5070010;28;20190;-42
2022/04/15 07:47:38;;;;;;;7.93;5.40;;;11.50;99.90;;;;;;5057731;28;20206;-42
2022/04/15 07:50:06;;;;;;;8.90;6.07;;;11.40;99.90;;;;;;5066086;28;20605;-40
2022/04/15 07:52:35;;;;;;;8.43;5.77;;;11.40;99.90;;;;;;5059035;28;20731;-41
2022/04/15 07:55:02;;;;;;;8.43;6.37;;;11.40;99.90;;;;;;5068450;28;20566;-40
2022/04/15 07:57:30;;;;;;;7.97;5.90;;;11.30;99.90;;;;;;5070022;28;20615;-41
2022/04/15 07:59:59;;;;;;;12.07;6.57;;;11.30;99.90;;;;;;5059715;28;20224;-39
2022/04/15 08:02:26;;;;;;;10.70;7.47;;;11.20;99.90;;;;;;5054001;28;20200;-39
2022/04/15 08:04:53;;;;;;;12.70;7.57;;;11.20;99.90;;;;;;5058156;28;20190;-39
2022/04/15 08:07:22;;;;;;;12.27;7.67;;;11.10;99.90;;;;;;5062386;28;20202;-40
2022/04/15 08:09:49;;;;;;;17.27;9.30;;;11.10;99.90;;;;;;5066559;28;20637;-40
2022/04/15 08:12:16;;;;;;;14.67;9.07;;;11.00;99.90;;;;;;5062842;28;20196;-40
2022/04/15 08:14:43;;;;;;;14.33;9.37;;;11.00;99.90;;;;;;5057146;28;20295;-49
2022/04/15 08:17:12;;;;;;;16.03;10.00;;;11.00;99.90;;;;;;5064598;28;20229;-48
2022/04/15 08:19:39;;;;;;;19.10;11.00;;;11.00;99.90;;;;;;5057433;28;20193;-48
2022/04/15 08:22:09;;;;;;;21.07;11.33;;;10.90;99.90;;;;;;5065587;28;20201;-47
2022/04/15 08:24:39;;;;;;;21.17;12.00;;;10.90;99.90;;;;;;5072784;28;20195;-46
2022/04/15 08:27:06;;;;;;;23.10;12.60;;;10.90;99.90;;;;;;5065367;28;20652;-46
2022/04/15 08:29:35;;;;;;;20.87;11.87;;;10.90;99.90;;;;;;5067126;28;20748;-43
2022/04/15 08:32:03;;;;;;;27.40;13.37;;;10.90;99.90;;;;;;5071791;28;20565;-42
2022/04/15 08:34:32;;;;;;;21.47;12.50;;;10.90;99.90;;;;;;5056505;28;20198;-45
2022/04/15 08:36:59;;;;;;;20.00;12.60;;;10.90;99.90;;;;;;5059625;28;20240;-45
2022/04/15 08:39:26;;;;;;;18.90;11.63;;;10.90;99.90;;;;;;5062775;28;20689;-45
2022/04/15 08:41:55;;;;;;;19.00;12.10;;;10.90;99.90;;;;;;5057870;28;20205;-45
2022/04/15 08:44:22;;;;;;;19.33;11.87;;;10.90;99.90;;;;;;5069570;28;20193;-48
2022/04/15 08:46:51;;;;;;;19.57;12.47;;;10.90;99.90;;;;;;5070310;28;20674;-47
2022/04/15 08:49:22;;;;;;;18.67;11.73;;;10.90;99.90;;;;;;5069672;28;20698;-42
2022/04/15 08:51:51;;;;;;;24.23;13.67;;;10.90;99.90;;;;;;5072542;28;20194;-45
2022/04/15 08:54:19;;;;;;;22.53;12.87;;;10.90;99.90;;;;;;5072468;28;20635;-40
2022/04/15 08:56:47;;;;;;;27.20;13.90;;;10.90;99.90;;;;;;5070515;28;20198;-40
2022/04/15 08:59:14;;;;;;;24.07;13.67;;;10.90;99.90;;;;;;5065021;28;20603;-40
2022/04/15 09:01:42;;;;;;;27.60;14.33;;;10.90;99.90;;;;;;5066740;28;20199;-42
2022/04/15 09:04:10;;;;;;;25.30;13.10;;;10.90;99.90;;;;;;5057771;28;20199;-43
2022/04/15 09:06:38;;;;;;;24.37;14.20;;;10.90;99.90;;;;;;5065571;28;20284;-45
2022/04/15 09:09:11;;;;;;;29.97;15.03;;;11.00;99.90;;;;;;5065348;28;20204;-40
2022/04/15 09:11:40;;;;;;;29.83;14.90;;;11.00;99.90;;;;;;5068527;28;20605;-45
2022/04/15 09:14:10;;;;;;;31.27;15.47;;;11.00;99.90;;;;;;5068999;28;20199;-41
2022/04/15 09:16:39;;;;;;;32.83;15.97;;;11.00;99.90;;;;;;5059411;28;20238;-42
2022/04/15 09:19:08;;;;;;;40.23;17.17;;;10.90;99.90;;;;;;5059552;28;20197;-45
2022/04/15 09:21:35;;;;;;;34.63;15.70;;;10.90;99.90;;;;;;5059869;28;20592;-45
2022/04/15 09:24:03;;;;;;;34.40;15.27;;;10.80;99.90;;;;;;5059964;28;20197;-40
2022/04/15 09:26:32;;;;;;;33.57;15.20;;;10.80;99.90;;;;;;5071349;28;20232;-39
2022/04/15 09:28:59;;;;;;;26.17;14.67;;;10.70;99.90;;;;;;5069218;28;20636;-43
2022/04/15 09:31:26;;;;;;;28.00;14.30;;;10.70;99.90;;;;;;5071473;28;20199;-45
2022/04/15 09:33:58;;;;;;;27.07;13.43;;;10.70;99.90;;;;;;5065969;28;20200;-43
2022/04/15 09:36:26;;;;;;;20.10;11.30;;;10.60;99.90;;;;;;5060454;28;20223;-47
2022/04/15 09:39:01;;;;;;;21.53;11.17;;;10.60;99.90;;;;;;5065372;28;20205;-42
2022/04/15 09:41:31;;;;;;;30.00;12.33;;;10.60;99.90;;;;;;5067000;28;20225;-40
2022/04/15 09:44:00;;;;;;;18.73;10.17;;;10.60;99.90;;;;;;5054774;28;20201;-44
2022/04/15 09:46:30;;;;;;;22.63;11.17;;;10.60;99.90;;;;;;5063798;28;20652;-39
2022/04/15 09:49:02;;;;;;;28.10;11.13;;;10.60;99.90;;;;;;5067977;28;20289;-42
2022/04/15 09:51:33;;;;;;;23.97;10.30;;;10.60;99.90;;;;;;5069983;28;20225;-39
2022/04/15 09:54:04;;;;;;;24.07;10.03;;;10.60;99.90;;;;;;5064499;28;20677;-38
2022/04/15 09:56:39;;;;;;;22.70;10.37;;;10.50;99.90;;;;;;5065702;28;20205;-40
2022/04/15 09:59:08;;;;;;;27.30;10.53;;;10.50;99.90;;;;;;5069079;28;20196;-38
2022/04/15 10:01:41;;;;;;;23.30;9.77;;;10.50;99.90;;;;;;5057154;28;20200;-39
2022/04/15 10:04:10;;;;;;;20.00;8.67;;;10.40;99.90;;;;;;5067125;28;20274;-38
2022/04/15 10:06:40;;;;;;;20.60;8.63;;;10.40;99.90;;;;;;5065035;28;20213;-38
2022/04/15 10:09:10;;;;;;;16.20;7.50;;;10.40;99.90;;;;;;5070254;28;20208;-38
2022/04/15 10:11:40;;;;;;;12.30;6.57;;;10.40;99.90;;;;;;5068052;28;20241;-39
2022/04/15 10:14:09;;;;;;;11.17;6.13;;;10.40;99.90;;;;;;5064140;28;20189;-39
2022/04/15 10:16:38;;;;;;;11.67;6.33;;;10.40;99.90;;;;;;5065586;28;20277;-41
2022/04/15 10:19:06;;;;;;;8.20;5.20;;;10.40;99.90;;;;;;5067898;28;20196;-39
2022/04/15 10:21:35;;;;;;;14.10;6.60;;;10.30;99.90;;;;;;5070253;28;20671;-38
2022/04/15 10:24:03;;;;;;;13.37;6.63;;;10.30;99.90;;;;;;5070159;28;20193;-39
2022/04/15 10:26:39;;;;;;;15.03;6.97;;;10.20;99.90;;;;;;5070615;28;20248;-40
2022/04/15 10:29:09;;;;;;;10.77;6.37;;;10.20;99.90;;;;;;5066717;28;20197;-40
2022/04/15 10:31:41;;;;;;;11.20;6.23;;;10.10;99.90;;;;;;5070192;28;20263;-39
2022/04/15 10:34:11;;;;;;;10.37;6.10;;;10.10;99.90;;;;;;5068062;28;20208;-39
2022/04/15 10:36:39;;;;;;;14.60;6.80;;;10.00;99.90;;;;;;5069868;28;20301;-40
2022/04/15 10:39:17;;;;;;;10.13;5.80;;;10.00;99.90;;;;;;5068949;28;20199;-40
2022/04/15 10:41:58;;;;;;;12.40;6.27;;;10.00;99.90;;;;;;5069858;28;20226;-41
2022/04/15 10:44:29;;;;;;;9.37;5.80;;;10.00;99.90;;;;;;5070961;28;20279;-40
2022/04/15 10:47:27;;;;;;;13.07;6.03;;;10.00;99.90;;;;;;5068851;28;20190;-46
2022/04/15 10:49:56;;;;;;;14.30;6.93;;;10.00;99.90;;;;;;5061792;28;20212;-39
2022/04/15 10:52:25;;;;;;;10.83;6.10;;;10.00;99.90;;;;;;5069227;28;20200;-40
2022/04/15 10:54:54;;;;;;;14.57;6.33;;;9.90;99.90;;;;;;5070018;28;20199;-41
2022/04/15 10:57:22;;;;;;;16.27;7.37;;;9.90;99.90;;;;;;5070358;28;20219;-42
2022/04/15 11:02:41;;;;;;;18.03;6.93;;;9.90;99.90;;;;;;5061092;28;20558;-39
2022/04/15 11:05:11;;;;;;;16.13;6.57;;;9.90;99.90;;;;;;5066107;28;20277;-46
2022/04/15 11:07:51;;;;;;;15.80;6.80;;;9.90;99.90;;;;;;5069949;28;20198;-46
2022/04/15 11:10:42;;;;;;;15.77;7.30;;;9.90;99.90;;;;;;5063415;28;20212;-48
2022/04/15 11:13:10;;;;;;;14.80;6.57;;;9.80;99.90;;;;;;5058575;28;20621;-40
2022/04/15 11:15:55;;;;;;;18.30;7.03;;;9.80;99.90;;;;;;5068845;28;20220;-40
2022/04/15 11:18:22;;;;;;;20.37;6.77;;;9.90;99.90;;;;;;5056118;28;20210;-40
2022/04/15 11:20:50;;;;;;;17.83;6.93;;;9.80;99.90;;;;;;5064436;28;20202;-41
2022/04/15 11:23:17;;;;;;;16.57;6.50;;;9.80;99.90;;;;;;5064104;28;20197;-42
2022/04/15 11:25:45;;;;;;;14.20;6.47;;;9.80;99.90;;;;;;5064325;28;20676;-41
2022/04/15 11:28:12;;;;;;;13.77;6.43;;;9.80;99.90;;;;;;5058962;28;20570;-40
2022/04/15 11:30:40;;;;;;;12.70;6.23;;;9.80;99.90;;;;;;5062174;28;20206;-42
2022/04/15 11:33:09;;;;;;;10.80;5.40;;;9.80;99.90;;;;;;5057181;28;20568;-40
2022/04/15 11:35:38;;;;;;;9.27;4.90;;;9.80;99.90;;;;;;5059415;28;20211;-40
2022/04/15 11:38:08;;;;;;;7.03;4.07;;;9.80;99.90;;;;;;5086076;28;20684;-41
2022/04/15 11:40:37;;;;;;;7.50;3.67;;;9.80;99.90;;;;;;5058534;28;20284;-43
2022/04/15 11:43:07;;;;;;;6.47;3.70;;;9.80;99.90;;;;;;5068573;28;20199;-42
2022/04/15 11:45:35;;;;;;;8.43;4.30;;;9.80;99.90;;;;;;5069730;28;20199;-40
2022/04/15 11:48:17;;;;;;;9.20;4.43;;;9.80;99.90;;;;;;5068209;28;20317;-41
2022/04/15 11:50:45;;;;;;;13.03;4.73;;;9.80;99.90;;;;;;5070654;28;20280;-41
2022/04/15 11:53:13;;;;;;;11.43;5.03;;;9.80;99.90;;;;;;5062651;28;20671;-46
2022/04/15 11:55:55;;;;;;;10.47;4.80;;;9.80;99.90;;;;;;5067658;28;20230;-44
2022/04/15 11:58:23;;;;;;;10.67;4.93;;;9.80;99.90;;;;;;5065644;28;20710;-42
2022/04/15 12:00:57;;;;;;;10.33;4.70;;;9.80;99.90;;;;;;5067387;28;20548;-41
2022/04/15 12:03:27;;;;;;;12.80;5.70;;;9.80;99.90;;;;;;5063370;28;20198;-42
2022/04/15 12:05:57;;;;;;;17.50;5.57;;;9.80;99.90;;;;;;5066669;28;20564;-45
2022/04/15 12:08:25;;;;;;;12.57;5.03;;;9.80;99.90;;;;;;5068582;28;20206;-41
2022/04/15 12:10:54;;;;;;;13.03;5.30;;;9.70;99.90;;;;;;5066847;28;20251;-43
2022/04/15 12:13:21;;;;;;;12.53;5.70;;;9.70;99.90;;;;;;5062874;28;20202;-43
2022/04/15 12:15:49;;;;;;;15.90;5.07;;;9.70;99.90;;;;;;5065755;28;20306;-45
2022/04/15 12:18:16;;;;;;;15.47;5.53;;;9.70;99.90;;;;;;5062994;28;20203;-45
2022/04/15 12:20:45;;;;;;;11.23;5.13;;;9.60;99.90;;;;;;5057630;28;20225;-40
2022/04/15 12:23:14;;;;;;;11.13;5.07;;;9.60;99.90;;;;;;5059594;28;20200;-47
2022/04/15 12:31:31;;;;;;;16.10;5.60;;;9.60;99.90;;;;;;5058043;28;20592;-46
2022/04/15 12:33:59;;;;;;;12.63;5.50;;;9.60;99.90;;;;;;5058070;28;20227;-46
2022/04/15 12:36:39;;;;;;;13.43;5.83;;;9.50;99.90;;;;;;5057028;28;20229;-48
2022/04/15 12:39:07;;;;;;;16.97;5.97;;;9.50;99.90;;;;;;5061517;28;20284;-48
2022/04/15 12:41:39;;;;;;;9.03;4.47;;;9.50;99.90;;;;;;5093618;28;20298;-42
2022/04/15 12:44:14;;;;;;;9.63;4.17;;;9.40;99.90;;;;;;5070121;28;20193;-47
2022/04/15 12:46:44;;;;;;;12.43;4.53;;;9.30;99.90;;;;;;5068411;28;20195;-45
2022/04/15 12:49:33;;;;;;;8.47;4.33;;;9.30;99.90;;;;;;5066923;28;20305;-46
2022/04/15 12:52:15;;;;;;;10.80;4.80;;;9.30;99.90;;;;;;5057265;28;20693;-39